createdAt,value
2019-02-05T00:01:37.848Z,1.47
2019-02-05T00:04:08.261Z,1.67
2019-02-05T00:06:38.262Z,1.50
2019-02-05T00:09:10.933Z,1.70
2019-02-05T00:11:42.306Z,1.50
2019-02-05T00:14:12.659Z,2.17
2019-02-05T00:16:42.993Z,1.57
2019-02-05T00:19:13.876Z,2.00
2019-02-05T00:21:45.858Z,1.50
2019-02-05T00:24:15.662Z,1.67
2019-02-05T00:26:45.518Z,1.73
2019-02-05T00:29:15.521Z,1.60
2019-02-05T00:31:45.458Z,1.73
2019-02-05T00:34:15.297Z,4.23
2019-02-05T00:36:45.158Z,1.50
2019-02-05T00:39:15.108Z,1.73
2019-02-05T00:41:48.633Z,1.70
2019-02-05T00:44:18.886Z,1.83
2019-02-05T00:46:48.874Z,1.77
2019-02-05T00:49:22.120Z,1.47
2019-02-05T00:51:58.674Z,1.70
2019-02-05T00:54:28.594Z,2.60
2019-02-05T00:56:58.490Z,1.60
2019-02-05T00:59:28.291Z,1.80
2019-02-05T01:02:05.499Z,1.70
2019-02-05T01:04:37.475Z,1.87
2019-02-05T01:07:07.494Z,1.93
2019-02-05T01:09:39.192Z,1.50
2019-02-05T01:12:09.149Z,1.80
2019-02-05T01:14:38.946Z,1.80
2019-02-05T01:17:08.894Z,1.70
2019-02-05T01:19:38.833Z,1.80
2019-02-05T01:22:08.951Z,1.73
2019-02-05T01:24:38.942Z,1.63
2019-02-05T01:27:08.748Z,2.07
2019-02-05T01:29:38.534Z,1.60
2019-02-05T01:32:10.664Z,2.07
2019-02-05T01:34:41.114Z,1.83
2019-02-05T01:37:11.009Z,2.53
2019-02-05T01:39:40.804Z,1.90
2019-02-05T01:42:10.719Z,1.97
2019-02-05T01:44:40.639Z,1.63
2019-02-05T01:47:10.575Z,1.90
2019-02-05T01:49:44.135Z,1.80
2019-02-05T01:52:14.202Z,1.70
2019-02-05T01:54:43.998Z,1.87
2019-02-05T01:57:15.795Z,1.80
2019-02-05T01:59:46.374Z,1.67
2019-02-05T02:02:18.280Z,1.77
2019-02-05T02:04:50.205Z,1.90
2019-02-05T02:07:20.074Z,1.70
2019-02-05T02:09:51.546Z,2.10
2019-02-05T02:12:21.405Z,1.43
2019-02-05T02:14:51.829Z,2.07
2019-02-05T02:17:22.053Z,1.70
2019-02-05T02:19:51.998Z,1.80
2019-02-05T02:22:21.850Z,1.83
2019-02-05T02:24:52.781Z,2.23
2019-02-05T02:27:25.102Z,1.97
2019-02-05T02:29:55.940Z,1.40
2019-02-05T02:32:29.688Z,1.80
2019-02-05T02:35:00.998Z,1.80
2019-02-05T02:37:34.802Z,2.17
2019-02-05T02:40:06.476Z,1.70
2019-02-05T02:42:36.833Z,1.80
2019-02-05T02:45:15.484Z,1.63
2019-02-05T02:47:49.178Z,2.17
2019-02-05T02:50:20.397Z,2.17
2019-02-05T02:52:50.906Z,1.70
2019-02-05T02:55:22.097Z,2.03
2019-02-05T02:57:52.219Z,2.00
2019-02-05T03:00:22.597Z,1.77
2019-02-05T03:02:54.506Z,1.63
2019-02-05T03:05:24.781Z,1.90
2019-02-05T03:07:55.766Z,1.70
2019-02-05T03:10:31.458Z,1.77
2019-02-05T03:13:01.790Z,2.20
2019-02-05T03:15:32.865Z,1.93
2019-02-05T03:18:02.722Z,2.10
2019-02-05T03:20:33.019Z,1.93
2019-02-05T03:23:02.780Z,1.80
2019-02-05T03:25:32.548Z,1.93
2019-02-05T03:28:02.355Z,1.80
2019-02-05T03:30:40.404Z,2.00
2019-02-05T03:33:10.205Z,2.20
2019-02-05T03:35:40.527Z,1.80
2019-02-05T03:38:10.311Z,1.90
2019-02-05T03:41:06.196Z,1.77
2019-02-05T03:43:40.341Z,2.00
2019-02-05T03:46:18.847Z,2.00
2019-02-05T03:48:49.926Z,1.80
2019-02-05T03:51:41.831Z,1.70
2019-02-05T03:54:54.650Z,1.80
2019-02-05T03:57:55.132Z,1.90
2019-02-05T04:00:42.932Z,2.20
2019-02-05T04:03:31.906Z,1.63
2019-02-05T04:06:27.445Z,2.03
2019-02-05T04:09:23.825Z,1.90
2019-02-05T04:12:30.035Z,2.03
2019-02-05T04:15:25.006Z,1.77
2019-02-05T04:18:34.742Z,2.40
2019-02-05T04:21:19.757Z,1.90
2019-02-05T04:24:29.915Z,2.33
2019-02-05T04:27:47.234Z,1.93
2019-02-05T04:30:42.857Z,2.40
2019-02-05T04:33:47.374Z,2.43
2019-02-05T04:36:57.514Z,2.00
2019-02-05T04:39:53.727Z,2.63
2019-02-05T04:43:05.088Z,1.90
2019-02-05T04:46:20.715Z,1.87
2019-02-05T04:49:42.591Z,2.40
2019-02-05T04:52:52.459Z,2.30
2019-02-05T04:55:53.259Z,2.10
2019-02-05T04:58:39.243Z,2.30
2019-02-05T05:02:01.908Z,1.90
2019-02-05T05:04:43.365Z,2.40
2019-02-05T05:07:29.967Z,2.03
2019-02-05T05:10:00.671Z,2.37
2019-02-05T05:12:30.907Z,2.07
2019-02-05T05:15:01.027Z,2.37
2019-02-05T05:17:30.825Z,2.53
2019-02-05T05:20:03.196Z,2.10
2019-02-05T05:22:33.842Z,2.20
2019-02-05T05:25:05.762Z,2.17
2019-02-05T05:27:35.704Z,2.47
2019-02-05T05:30:08.692Z,2.03
2019-02-05T05:32:38.555Z,2.23
2019-02-05T05:35:09.618Z,2.70
2019-02-05T05:37:39.393Z,2.27
2019-02-05T05:40:09.986Z,2.10
2019-02-05T05:42:40.415Z,1.97
2019-02-05T05:45:13.647Z,2.17
2019-02-05T05:47:44.343Z,2.40
2019-02-05T05:50:15.467Z,2.20
2019-02-05T05:52:45.346Z,2.33
2019-02-05T05:55:15.422Z,2.20
2019-02-05T05:57:45.250Z,1.93
2019-02-05T06:00:17.751Z,2.40
2019-02-05T06:02:47.514Z,2.17
2019-02-05T06:05:19.195Z,2.20
2019-02-05T06:07:49.073Z,2.60
2019-02-05T06:10:19.215Z,2.30
2019-02-05T06:12:49.005Z,2.20
2019-02-05T06:15:18.779Z,2.80
2019-02-05T06:17:48.546Z,2.37
2019-02-05T06:20:20.615Z,2.50
2019-02-05T06:22:52.678Z,2.57
2019-02-05T06:25:22.565Z,2.37
2019-02-05T06:27:52.694Z,2.60
2019-02-05T06:30:22.479Z,2.20
2019-02-05T06:32:52.346Z,2.53
2019-02-05T06:35:23.127Z,2.60
2019-02-05T06:37:54.719Z,2.93
2019-02-05T06:40:24.555Z,2.63
2019-02-05T06:42:54.329Z,2.93
2019-02-05T06:45:24.247Z,2.37
2019-02-05T06:47:54.023Z,2.50
2019-02-05T06:50:23.978Z,2.73
2019-02-05T06:52:54.227Z,2.43
2019-02-05T06:55:24.034Z,2.40
2019-02-05T06:57:53.794Z,2.90
2019-02-05T07:00:24.573Z,2.67
2019-02-05T07:02:54.616Z,2.50
2019-02-05T07:05:24.375Z,2.67
2019-02-05T07:07:54.703Z,2.67
2019-02-05T07:10:24.855Z,18.07
2019-02-05T07:12:54.723Z,14.90
2019-02-05T07:15:24.550Z,12.30
2019-02-05T07:17:54.458Z,9.87
2019-02-05T07:20:24.917Z,11.90
2019-02-05T07:22:56.774Z,9.47
2019-02-05T07:25:26.823Z,7.23
2019-02-05T07:27:56.679Z,6.70
2019-02-05T07:30:26.955Z,7.87
2019-02-05T07:32:57.038Z,6.67
2019-02-05T07:35:27.032Z,5.43
2019-02-05T07:37:57.311Z,6.20
2019-02-05T07:40:27.159Z,6.67
2019-02-05T07:42:57.206Z,6.37
2019-02-05T07:45:27.120Z,7.67
2019-02-05T07:47:56.959Z,6.53
2019-02-05T07:50:27.310Z,7.67
2019-02-05T07:52:57.271Z,7.40
2019-02-05T07:55:27.506Z,7.33
2019-02-05T07:57:57.279Z,7.77
2019-02-05T08:00:28.264Z,9.40
2019-02-05T08:02:58.782Z,11.80
2019-02-05T08:05:30.822Z,8.63
2019-02-05T08:08:01.461Z,7.40
2019-02-05T08:10:32.039Z,8.97
2019-02-05T08:13:02.916Z,7.73
2019-02-05T08:15:34.316Z,6.57
2019-02-05T08:18:04.656Z,7.60
2019-02-05T08:20:36.414Z,10.30
2019-02-05T08:23:06.859Z,9.33
2019-02-05T08:25:36.816Z,6.93
2019-02-05T08:28:07.629Z,8.40
2019-02-05T08:30:43.699Z,10.53
2019-02-05T08:33:13.712Z,6.83
2019-02-05T08:35:44.703Z,6.57
2019-02-05T08:38:15.284Z,6.37
2019-02-05T08:40:45.931Z,7.57
2019-02-05T08:43:16.242Z,8.97
2019-02-05T08:45:56.343Z,6.37
2019-02-05T08:48:18.666Z,6.37
2019-02-05T08:50:54.134Z,5.47
2019-02-05T08:53:24.561Z,5.63
2019-02-05T08:55:54.784Z,3.83
2019-02-05T08:58:31.219Z,5.10
2019-02-05T09:00:56.149Z,6.83
2019-02-05T09:03:26.014Z,4.83
2019-02-05T09:05:58.107Z,6.83
2019-02-05T09:08:28.523Z,6.90
2019-02-05T09:10:59.732Z,12.13
2019-02-05T09:13:29.586Z,13.07
2019-02-05T09:15:59.580Z,11.50
2019-02-05T09:18:30.022Z,10.17
2019-02-05T09:21:00.978Z,9.20
2019-02-05T09:23:30.925Z,4.80
2019-02-05T09:26:00.718Z,8.00
2019-02-05T09:28:30.566Z,6.07
2019-02-05T09:31:00.393Z,6.60
2019-02-05T09:33:30.270Z,5.47
2019-02-05T09:36:00.299Z,7.07
2019-02-05T09:38:30.296Z,7.87
2019-02-05T09:41:00.632Z,5.20
2019-02-05T09:43:30.563Z,7.97
2019-02-05T09:46:00.522Z,5.93
2019-02-05T09:48:30.563Z,5.73
2019-02-05T09:51:00.500Z,6.23
2019-02-05T09:53:30.626Z,7.37
2019-02-05T09:56:01.669Z,7.17
2019-02-05T09:58:32.519Z,5.63
2019-02-05T10:01:02.751Z,9.77
2019-02-05T10:03:37.169Z,11.10
2019-02-05T10:06:07.634Z,6.43
2019-02-05T10:08:37.410Z,8.07
2019-02-05T10:11:07.716Z,5.77
2019-02-05T10:13:37.619Z,10.33
2019-02-05T10:16:07.842Z,7.90
2019-02-05T10:18:37.724Z,9.63
2019-02-05T10:21:07.891Z,10.53
2019-02-05T10:23:38.898Z,7.77
2019-02-05T10:26:09.519Z,7.47
2019-02-05T10:28:39.283Z,9.47
2019-02-05T10:31:09.075Z,10.27
2019-02-05T10:33:39.092Z,11.30
2019-02-05T10:36:08.946Z,12.27
2019-02-05T10:38:38.904Z,7.23
2019-02-05T10:41:10.267Z,8.13
2019-02-05T10:43:40.758Z,10.03
2019-02-05T10:46:10.958Z,6.97
2019-02-05T10:48:40.878Z,10.40
2019-02-05T10:51:11.116Z,5.63
2019-02-05T10:53:42.166Z,7.13
2019-02-05T10:56:12.283Z,7.00
2019-02-05T10:58:42.279Z,10.80
2019-02-05T11:01:12.226Z,6.17
2019-02-05T11:03:45.095Z,6.23
2019-02-05T11:06:14.898Z,6.23
2019-02-05T11:08:46.132Z,6.83
2019-02-05T11:11:16.562Z,7.87
2019-02-05T11:13:46.429Z,6.67
2019-02-05T11:16:16.286Z,6.13
2019-02-05T11:18:46.147Z,9.23
2019-02-05T11:21:17.130Z,6.60
2019-02-05T11:23:49.098Z,18.77
2019-02-05T11:26:19.339Z,15.63
2019-02-05T11:28:50.223Z,10.60
2019-02-05T11:31:20.109Z,12.87
2019-02-05T11:33:49.894Z,8.93
2019-02-05T11:36:19.732Z,10.83
2019-02-05T11:38:51.153Z,9.53
2019-02-05T11:41:22.344Z,10.17
2019-02-05T11:43:52.163Z,8.10
2019-02-05T11:46:24.235Z,7.60
2019-02-05T11:48:55.594Z,9.07
2019-02-05T11:51:25.495Z,7.50
2019-02-05T11:53:55.298Z,11.27
2019-02-05T11:56:25.854Z,8.43
2019-02-05T11:58:55.713Z,10.73
2019-02-05T12:01:38.480Z,9.97
2019-02-05T12:04:02.820Z,7.63
2019-02-05T12:06:33.040Z,8.97
2019-02-05T12:09:04.671Z,10.17
2019-02-05T12:11:34.684Z,9.93
2019-02-05T12:14:05.099Z,7.67
2019-02-05T12:16:36.534Z,8.63
2019-02-05T12:19:06.445Z,10.13
2019-02-05T12:21:38.193Z,6.93
2019-02-05T12:24:09.702Z,5.63
2019-02-05T12:26:42.335Z,12.07
2019-02-05T12:29:12.527Z,5.67
2019-02-05T12:31:42.494Z,8.60
2019-02-05T12:34:14.066Z,7.80
2019-02-05T12:36:45.199Z,6.23
2019-02-05T12:39:17.822Z,7.00
2019-02-05T12:41:47.763Z,6.60
2019-02-05T12:44:18.034Z,13.97
2019-02-05T12:46:47.899Z,6.77
2019-02-05T12:49:17.743Z,9.20
2019-02-05T12:51:47.969Z,7.97
2019-02-05T12:54:18.421Z,6.13
2019-02-05T12:56:48.397Z,7.50
2019-02-05T12:59:18.278Z,5.87
2019-02-05T13:01:48.190Z,7.33
2019-02-05T13:04:17.949Z,7.73
2019-02-05T13:06:47.716Z,5.57
2019-02-05T13:09:17.571Z,9.23
2019-02-05T13:11:47.335Z,8.80
2019-02-05T13:14:17.194Z,9.17
2019-02-05T13:16:47.873Z,9.07
2019-02-05T13:19:17.612Z,8.17
2019-02-05T13:21:49.028Z,6.30
2019-02-05T13:24:19.196Z,9.10
2019-02-05T13:26:50.246Z,6.30
2019-02-05T13:29:20.385Z,5.53
2019-02-05T13:31:51.539Z,8.73
2019-02-05T13:34:22.702Z,8.77
2019-02-05T13:36:52.563Z,11.27
2019-02-05T13:39:22.340Z,9.67
2019-02-05T13:41:54.025Z,6.07
2019-02-05T13:44:23.937Z,9.27
2019-02-05T13:46:53.863Z,6.20
2019-02-05T13:49:25.762Z,8.57
2019-02-05T13:51:55.682Z,7.30
2019-02-05T13:54:25.547Z,6.93
2019-02-05T13:56:55.431Z,7.57
2019-02-05T13:59:25.362Z,6.30
2019-02-05T14:01:55.297Z,12.37
2019-02-05T14:04:25.506Z,8.27
2019-02-05T14:06:55.266Z,7.00
2019-02-05T14:09:25.174Z,6.10
2019-02-05T14:11:55.028Z,9.73
2019-02-05T14:14:25.918Z,9.33
2019-02-05T14:16:56.267Z,9.17
2019-02-05T14:19:26.067Z,9.37
2019-02-05T14:21:56.184Z,6.10
2019-02-05T14:24:27.238Z,9.33
2019-02-05T14:26:58.262Z,5.13
2019-02-05T14:29:28.894Z,9.20
2019-02-05T14:31:58.986Z,5.30
2019-02-05T14:34:28.763Z,6.57
2019-02-05T14:36:58.958Z,8.57
2019-02-05T14:39:30.037Z,9.20
2019-02-05T14:41:59.838Z,6.70
2019-02-05T14:44:29.626Z,5.60
2019-02-05T14:46:59.471Z,5.37
2019-02-05T14:49:29.338Z,8.27
2019-02-05T14:51:59.389Z,10.83
2019-02-05T14:54:29.300Z,8.43
2019-02-05T14:56:59.700Z,7.83
2019-02-05T14:59:30.242Z,8.10
2019-02-05T15:02:00.170Z,8.77
2019-02-05T15:04:29.930Z,6.13
2019-02-05T15:06:59.758Z,9.57
2019-02-05T15:09:29.636Z,7.97
2019-02-05T15:12:04.306Z,5.60
2019-02-05T15:14:34.071Z,7.23
2019-02-05T15:17:03.870Z,7.87
2019-02-05T15:19:33.807Z,7.73
2019-02-05T15:22:05.452Z,5.77
2019-02-05T15:24:37.487Z,6.43
2019-02-05T15:27:07.827Z,13.37
2019-02-05T15:29:38.050Z,7.80
2019-02-05T15:32:08.584Z,6.50
2019-02-05T15:34:38.348Z,5.90
2019-02-05T15:37:08.254Z,6.77
2019-02-05T15:39:38.436Z,6.17
2019-02-05T15:42:10.551Z,8.10
2019-02-05T15:44:40.404Z,6.43
2019-02-05T15:47:13.371Z,10.40
2019-02-05T15:49:43.266Z,8.33
2019-02-05T15:52:13.231Z,7.73
2019-02-05T15:54:43.042Z,7.77
2019-02-05T15:57:12.962Z,8.00
2019-02-05T15:59:42.754Z,8.43
2019-02-05T16:02:14.561Z,6.03
2019-02-05T16:04:44.497Z,6.17
2019-02-05T16:07:16.113Z,6.17
2019-02-05T16:09:46.323Z,7.33
2019-02-05T16:12:16.103Z,9.67
2019-02-05T16:14:46.006Z,6.10
2019-02-05T16:17:15.886Z,8.60
2019-02-05T16:19:45.675Z,8.07
2019-02-05T16:22:16.407Z,7.03
2019-02-05T16:24:47.690Z,4.97
2019-02-05T16:27:18.070Z,5.80
2019-02-05T16:29:48.717Z,10.23
2019-02-05T16:32:18.474Z,5.27
2019-02-05T16:34:48.635Z,5.93
2019-02-05T16:37:18.438Z,9.10
2019-02-05T16:39:48.209Z,5.80
2019-02-05T16:42:18.152Z,6.23
2019-02-05T16:44:47.915Z,7.73
2019-02-05T16:47:17.742Z,5.17
2019-02-05T16:49:48.036Z,8.57
2019-02-05T16:52:18.973Z,4.37
2019-02-05T16:54:48.756Z,9.07
2019-02-05T16:57:22.350Z,14.13
2019-02-05T16:59:52.269Z,7.47
2019-02-05T17:05:47.582Z,10.43
2019-02-05T17:08:18.660Z,11.90
2019-02-05T17:11:33.216Z,5.00
2019-02-05T17:14:04.540Z,6.17
2019-02-05T17:16:34.667Z,5.97
2019-02-05T17:19:04.619Z,6.43
2019-02-05T17:21:36.261Z,10.93
2019-02-05T17:24:06.202Z,7.07
2019-02-05T17:26:36.498Z,9.30
2019-02-05T17:29:06.279Z,5.50
2019-02-05T17:31:36.447Z,5.70
2019-02-05T17:34:06.354Z,6.43
2019-02-05T17:36:36.170Z,7.20
2019-02-05T17:39:09.671Z,6.87
2019-02-05T17:41:39.681Z,5.47
2019-02-05T17:44:09.903Z,7.87
2019-02-05T17:46:39.778Z,4.67
2019-02-05T17:49:12.102Z,5.50
2019-02-05T17:51:41.182Z,5.47
2019-02-05T17:54:12.007Z,4.30
2019-02-05T17:56:42.234Z,8.27
2019-02-05T17:59:11.995Z,6.33
2019-02-05T18:01:43.902Z,4.27
2019-02-05T18:04:14.134Z,4.70
2019-02-05T18:06:44.423Z,3.70
2019-02-05T18:09:14.364Z,4.83
2019-02-05T18:11:46.022Z,4.40
2019-02-05T18:14:15.823Z,4.87
2019-02-05T18:16:45.594Z,4.43
2019-02-05T18:19:15.387Z,6.00
2019-02-05T18:21:47.022Z,5.07
2019-02-05T18:24:17.440Z,4.50
2019-02-05T18:26:48.818Z,3.77
2019-02-05T18:29:19.444Z,7.23
2019-02-05T18:31:49.295Z,5.10
2019-02-05T18:34:19.151Z,4.40
2019-02-05T18:36:48.988Z,4.73
2019-02-05T18:39:18.852Z,4.70
2019-02-05T18:41:48.690Z,5.10
2019-02-05T18:44:18.486Z,4.47
2019-02-05T18:46:48.258Z,5.10
2019-02-05T18:49:20.225Z,4.10
2019-02-05T18:51:50.059Z,4.23
2019-02-05T18:54:19.824Z,4.33
2019-02-05T18:56:50.626Z,5.27
2019-02-05T18:59:21.678Z,4.60
2019-02-05T19:01:51.491Z,4.20
2019-02-05T19:04:21.322Z,6.77
2019-02-05T19:06:51.101Z,3.83
2019-02-05T19:09:20.930Z,3.93
2019-02-05T19:11:50.800Z,5.27
2019-02-05T19:14:23.339Z,4.10
2019-02-05T19:16:53.547Z,4.33
2019-02-05T19:19:23.743Z,5.50
2019-02-05T19:21:55.127Z,4.37
2019-02-05T19:24:39.267Z,4.20
2019-02-05T19:27:09.186Z,3.97
2019-02-05T19:29:45.158Z,4.20
2019-02-05T19:32:18.321Z,5.13
2019-02-05T19:35:07.953Z,4.70
2019-02-05T19:37:38.378Z,4.80
2019-02-05T19:40:09.241Z,4.40
2019-02-05T19:42:39.030Z,4.30
2019-02-05T19:45:31.786Z,4.40
2019-02-05T19:48:02.615Z,5.53
2019-02-05T19:50:32.575Z,4.67
2019-02-05T19:53:02.518Z,4.63
2019-02-05T19:55:33.646Z,4.17
2019-02-05T19:58:04.034Z,5.57
2019-02-05T20:00:33.844Z,4.10
2019-02-05T20:03:03.683Z,4.30
2019-02-05T20:05:34.166Z,4.30
2019-02-05T20:08:04.541Z,5.40
2019-02-05T20:10:34.315Z,3.83
2019-02-05T20:13:06.856Z,4.63
2019-02-05T20:15:37.724Z,5.63
2019-02-05T20:18:07.571Z,4.50
2019-02-05T20:20:40.086Z,4.43
2019-02-05T20:23:09.857Z,4.40
2019-02-05T20:25:39.715Z,4.40
2019-02-05T20:28:09.713Z,5.43
2019-02-05T20:30:40.898Z,4.43
2019-02-05T20:33:10.787Z,4.90
2019-02-05T20:35:40.614Z,4.63
2019-02-05T20:38:10.529Z,4.03
2019-02-05T20:40:41.597Z,3.90
2019-02-05T20:43:12.514Z,4.40
2019-02-05T20:45:43.943Z,4.57
2019-02-05T20:48:14.160Z,4.20
2019-02-05T20:50:43.933Z,5.00
2019-02-05T20:53:14.410Z,5.73
2019-02-05T20:55:45.418Z,4.77
2019-02-05T20:58:16.282Z,4.10
2019-02-05T21:00:46.090Z,4.83
2019-02-05T21:03:15.979Z,4.63
2019-02-05T21:05:46.381Z,4.87
2019-02-05T21:08:16.146Z,5.57
2019-02-05T21:10:46.702Z,4.13
2019-02-05T21:13:17.450Z,4.50
2019-02-05T21:15:49.477Z,4.27
2019-02-05T21:18:19.363Z,4.10
2019-02-05T21:20:50.820Z,4.60
2019-02-05T21:23:20.659Z,4.17
2019-02-05T21:25:50.431Z,4.93
2019-02-05T21:28:21.131Z,4.40
2019-02-05T21:30:52.252Z,3.93
2019-02-05T21:33:22.803Z,5.10
2019-02-05T21:35:52.642Z,4.27
2019-02-05T21:38:22.494Z,6.30
2019-02-05T21:41:04.613Z,4.40
2019-02-05T21:43:34.571Z,5.97
2019-02-05T21:46:05.780Z,4.03
2019-02-05T21:49:18.950Z,4.90
2019-02-05T21:51:55.588Z,5.40
2019-02-05T21:54:27.227Z,4.83
2019-02-05T21:57:01.293Z,5.00
2019-02-05T22:00:15.850Z,4.90
2019-02-05T22:02:45.996Z,5.17
2019-02-05T22:05:18.241Z,4.50
2019-02-05T22:07:49.624Z,4.43
2019-02-05T22:10:20.777Z,4.20
2019-02-05T22:12:50.713Z,4.83
2019-02-05T22:15:21.683Z,4.47
2019-02-05T22:17:52.324Z,5.47
2019-02-05T22:20:25.893Z,4.50
2019-02-05T22:22:57.452Z,4.20
2019-02-05T22:25:28.795Z,4.20
2019-02-05T22:27:58.670Z,4.57
2019-02-05T22:30:30.568Z,5.40
2019-02-05T22:33:00.562Z,5.20
2019-02-05T22:35:30.548Z,4.30
2019-02-05T22:38:03.599Z,4.53
2019-02-05T22:40:33.562Z,5.00
2019-02-05T22:43:04.415Z,4.93
2019-02-05T22:45:34.685Z,4.77
2019-02-05T22:48:06.038Z,4.83
2019-02-05T22:50:35.907Z,4.50
2019-02-05T22:53:06.247Z,4.77
2019-02-05T22:55:36.474Z,5.67
2019-02-05T22:58:07.117Z,5.43
2019-02-05T23:00:52.623Z,5.03
2019-02-05T23:03:38.342Z,4.63
2019-02-05T23:06:46.463Z,5.07
2019-02-05T23:09:43.623Z,4.73
2019-02-05T23:12:42.286Z,4.93
2019-02-05T23:15:16.134Z,4.67
2019-02-05T23:17:47.179Z,4.80
2019-02-05T23:20:20.794Z,4.53
2019-02-05T23:22:53.317Z,4.17
2019-02-05T23:25:23.182Z,5.20
2019-02-05T23:27:53.100Z,5.23
2019-02-05T23:30:25.481Z,5.07
2019-02-05T23:32:55.501Z,5.80
2019-02-05T23:35:25.509Z,4.90
2019-02-05T23:37:55.998Z,5.27
2019-02-05T23:40:25.829Z,4.97
2019-02-05T23:42:55.819Z,5.33
2019-02-05T23:45:26.032Z,4.47
2019-02-05T23:47:55.873Z,5.50
2019-02-05T23:50:26.091Z,5.13
2019-02-05T23:52:58.121Z,5.20
2019-02-05T23:55:28.659Z,4.60
2019-02-05T23:57:58.413Z,5.30
